sensor_id;sensor_type;location;lat;lon;timestamp;P1;P2;P0
46044;PMS7003;31781;54.094;13.428;2023-04-24T00:00:23;8.00;8.00;5.50
46044;PMS7003;31781;54.094;13.428;2023-04-24T00:02:25;5.75;5.75;4.75
46044;PMS7003;31781;54.094;13.428;2023-04-24T00:04:27;8.50;8.50;6.50
46044;PMS7003;31781;54.094;13.428;2023-04-24T00:06:29;10.00;5.75;5.00
46044;PMS7003;31781;54.094;13.428;2023-04-24T00:08:30;10.25;7.25;5.25
46044;PMS7003;31781;54.094;13.428;2023-04-24T00:10:32;8.25;8.25;6.25
46044;PMS7003;31781;54.094;13.428;2023-04-24T00:12:34;6.25;6.25;5.00
46044;PMS7003;31781;54.094;13.428;2023-04-24T00:14:35;9.00;9.00;8.00
46044;PMS7003;31781;54.094;13.428;2023-04-24T00:16:39;10.75;9.25;5.50
46044;PMS7003;31781;54.094;13.428;2023-04-24T00:18:40;3.00;3.00;3.00
46044;PMS7003;31781;54.094;13.428;2023-04-24T00:20:42;8.75;8.75;6.00
46044;PMS7003;31781;54.094;13.428;2023-04-24T00:22:44;8.25;8.25;5.00
46044;PMS7003;31781;54.094;13.428;2023-04-24T00:24:45;10.75;9.75;6.25
46044;PMS7003;31781;54.094;13.428;2023-04-24T00:26:47;9.00;7.25;5.50
46044;PMS7003;31781;54.094;13.428;2023-04-24T00:28:49;9.00;9.00;5.50
46044;PMS7003;31781;54.094;13.428;2023-04-24T00:30:50;10.75;10.75;7.00
46044;PMS7003;31781;54.094;13.428;2023-04-24T00:32:53;10.00;7.50;6.00
46044;PMS7003;31781;54.094;13.428;2023-04-24T00:34:55;10.00;10.00;6.50
46044;PMS7003;31781;54.094;13.428;2023-04-24T00:36:57;7.25;7.25;6.00
46044;PMS7003;31781;54.094;13.428;2023-04-24T00:38:58;9.50;9.00;6.00
46044;PMS7003;31781;54.094;13.428;2023-04-24T00:41:00;7.25;7.25;6.00
46044;PMS7003;31781;54.094;13.428;2023-04-24T00:43:01;11.00;8.50;5.00
46044;PMS7003;31781;54.094;13.428;2023-04-24T00:45:04;7.00;7.00;6.00
46044;PMS7003;31781;54.094;13.428;2023-04-24T00:47:06;9.00;9.00;6.50
46044;PMS7003;31781;54.094;13.428;2023-04-24T00:49:09;8.75;6.25;5.75
46044;PMS7003;31781;54.094;13.428;2023-04-24T00:51:12;7.25;7.25;5.75
46044;PMS7003;31781;54.094;13.428;2023-04-24T00:53:14;9.25;9.25;5.75
46044;PMS7003;31781;54.094;13.428;2023-04-24T00:55:16;9.25;9.25;7.50
46044;PMS7003;31781;54.094;13.428;2023-04-24T00:57:18;7.00;6.00;5.00
46044;PMS7003;31781;54.094;13.428;2023-04-24T00:59:20;10.75;9.00;6.00
46044;PMS7003;31781;54.094;13.428;2023-04-24T01:01:22;7.50;7.50;5.00
46044;PMS7003;31781;54.094;13.428;2023-04-24T01:03:24;5.25;5.25;4.25
46044;PMS7003;31781;54.094;13.428;2023-04-24T01:05:29;7.25;7.25;5.00
46044;PMS7003;31781;54.094;13.428;2023-04-24T01:07:31;7.25;7.25;6.00
46044;PMS7003;31781;54.094;13.428;2023-04-24T01:09:33;9.75;8.75;6.50
46044;PMS7003;31781;54.094;13.428;2023-04-24T01:11:34;9.75;8.75;6.00
46044;PMS7003;31781;54.094;13.428;2023-04-24T01:13:36;11.75;9.25;7.75
46044;PMS7003;31781;54.094;13.428;2023-04-24T01:15:37;10.75;10.75;8.50
46044;PMS7003;31781;54.094;13.428;2023-04-24T01:17:39;10.75;6.75;6.00
46044;PMS7003;31781;54.094;13.428;2023-04-24T01:19:41;11.50;10.75;6.50
46044;PMS7003;31781;54.094;13.428;2023-04-24T01:21:44;5.75;5.75;5.00
46044;PMS7003;31781;54.094;13.428;2023-04-24T01:23:50;9.50;9.50;6.75
46044;PMS7003;31781;54.094;13.428;2023-04-24T01:25:52;10.25;10.25;7.00
46044;PMS7003;31781;54.094;13.428;2023-04-24T01:27:53;10.25;10.25;8.25
46044;PMS7003;31781;54.094;13.428;2023-04-24T01:29:55;9.75;9.75;8.75
46044;PMS7003;31781;54.094;13.428;2023-04-24T01:31:57;12.00;10.50;9.00
46044;PMS7003;31781;54.094;13.428;2023-04-24T01:33:59;7.50;7.50;6.00
46044;PMS7003;31781;54.094;13.428;2023-04-24T01:36:01;11.75;9.25;6.75
46044;PMS7003;31781;54.094;13.428;2023-04-24T01:38:04;8.75;8.75;6.25
46044;PMS7003;31781;54.094;13.428;2023-04-24T01:40:07;11.25;11.25;8.75
46044;PMS7003;31781;54.094;13.428;2023-04-24T01:42:10;11.75;10.00;7.75
46044;PMS7003;31781;54.094;13.428;2023-04-24T01:44:13;11.25;10.50;6.75
46044;PMS7003;31781;54.094;13.428;2023-04-24T01:46:15;11.25;9.75;8.75
46044;PMS7003;31781;54.094;13.428;2023-04-24T01:48:17;7.75;7.75;5.00
46044;PMS7003;31781;54.094;13.428;2023-04-24T01:50:19;12.00;7.50;5.00
46044;PMS7003;31781;54.094;13.428;2023-04-24T01:52:21;10.00;10.00;7.00
46044;PMS7003;31781;54.094;13.428;2023-04-24T01:54:23;12.75;11.25;8.50
46044;PMS7003;31781;54.094;13.428;2023-04-24T01:56:26;10.75;10.75;6.25
46044;PMS7003;31781;54.094;13.428;2023-04-24T01:58:30;8.50;8.50;6.75
46044;PMS7003;31781;54.094;13.428;2023-04-24T02:00:33;6.75;6.75;5.50
46044;PMS7003;31781;54.094;13.428;2023-04-24T02:02:34;12.25;9.25;6.00
46044;PMS7003;31781;54.094;13.428;2023-04-24T02:04:36;9.00;6.75;5.25
46044;PMS7003;31781;54.094;13.428;2023-04-24T02:06:38;10.50;10.50;8.00
46044;PMS7003;31781;54.094;13.428;2023-04-24T02:08:40;5.25;5.00;4.00
46044;PMS7003;31781;54.094;13.428;2023-04-24T02:10:41;9.00;8.50;6.00
46044;PMS7003;31781;54.094;13.428;2023-04-24T02:12:44;9.75;9.75;7.25
46044;PMS7003;31781;54.094;13.428;2023-04-24T02:14:46;9.75;9.00;6.00
46044;PMS7003;31781;54.094;13.428;2023-04-24T02:16:48;12.75;12.75;9.00
46044;PMS7003;31781;54.094;13.428;2023-04-24T02:18:49;8.00;8.00;6.75
46044;PMS7003;31781;54.094;13.428;2023-04-24T02:20:51;8.75;8.75;6.25
46044;PMS7003;31781;54.094;13.428;2023-04-24T02:22:52;10.75;10.75;9.00
46044;PMS7003;31781;54.094;13.428;2023-04-24T02:24:54;11.25;11.25;9.50
46044;PMS7003;31781;54.094;13.428;2023-04-24T02:26:56;11.00;10.00;7.75
46044;PMS7003;31781;54.094;13.428;2023-04-24T02:28:59;8.00;8.00;6.00
46044;PMS7003;31781;54.094;13.428;2023-04-24T02:31:01;12.00;10.50;8.00
46044;PMS7003;31781;54.094;13.428;2023-04-24T02:33:02;9.00;9.00;7.25
46044;PMS7003;31781;54.094;13.428;2023-04-24T02:35:04;11.00;9.75;6.75
46044;PMS7003;31781;54.094;13.428;2023-04-24T02:37:07;11.25;11.25;10.00
46044;PMS7003;31781;54.094;13.428;2023-04-24T02:39:08;9.75;9.75;7.75
46044;PMS7003;31781;54.094;13.428;2023-04-24T02:41:10;9.75;9.75;6.75
46044;PMS7003;31781;54.094;13.428;2023-04-24T02:43:12;13.00;13.00;10.00
46044;PMS7003;31781;54.094;13.428;2023-04-24T02:45:15;10.00;10.00;7.25
46044;PMS7003;31781;54.094;13.428;2023-04-24T02:47:17;9.00;9.00;6.25
46044;PMS7003;31781;54.094;13.428;2023-04-24T02:49:18;8.50;8.50;6.00
46044;PMS7003;31781;54.094;13.428;2023-04-24T02:51:20;12.00;12.00;10.00
46044;PMS7003;31781;54.094;13.428;2023-04-24T02:53:22;10.25;10.25;9.00
46044;PMS7003;31781;54.094;13.428;2023-04-24T02:55:23;10.50;9.75;6.75
46044;PMS7003;31781;54.094;13.428;2023-04-24T02:57:25;11.00;11.00;9.25
46044;PMS7003;31781;54.094;13.428;2023-04-24T02:59:27;11.00;11.00;9.00
46044;PMS7003;31781;54.094;13.428;2023-04-24T03:01:30;11.75;10.50;7.25
46044;PMS7003;31781;54.094;13.428;2023-04-24T03:03:31;11.00;11.00;9.00
46044;PMS7003;31781;54.094;13.428;2023-04-24T03:05:33;10.00;10.00;9.00
46044;PMS7003;31781;54.094;13.428;2023-04-24T03:07:35;10.50;8.00;6.00
46044;PMS7003;31781;54.094;13.428;2023-04-24T03:09:37;9.00;9.00;6.00
46044;PMS7003;31781;54.094;13.428;2023-04-24T03:11:38;11.75;11.75;8.50
46044;PMS7003;31781;54.094;13.428;2023-04-24T03:13:40;9.00;9.00;5.00
46044;PMS7003;31781;54.094;13.428;2023-04-24T03:15:42;10.00;10.00;7.00
46044;PMS7003;31781;54.094;13.428;2023-04-24T03:17:45;12.00;12.00;9.00
46044;PMS7003;31781;54.094;13.428;2023-04-24T03:19:50;9.25;9.25;6.75
46044;PMS7003;31781;54.094;13.428;2023-04-24T03:21:52;10.50;10.50;8.50
46044;PMS7003;31781;54.094;13.428;2023-04-24T03:23:54;13.00;11.50;9.25
46044;PMS7003;31781;54.094;13.428;2023-04-24T03:25:55;12.25;12.25;8.75
46044;PMS7003;31781;54.094;13.428;2023-04-24T03:27:57;10.75;10.75;7.25
46044;PMS7003;31781;54.094;13.428;2023-04-24T03:29:59;11.50;11.50;9.00
46044;PMS7003;31781;54.094;13.428;2023-04-24T03:32:00;11.25;11.25;7.50
46044;PMS7003;31781;54.094;13.428;2023-04-24T03:34:03;17.00;13.00;8.25
46044;PMS7003;31781;54.094;13.428;2023-04-24T03:36:05;15.00;13.50;9.25
46044;PMS7003;31781;54.094;13.428;2023-04-24T03:38:07;14.75;14.50;10.00
46044;PMS7003;31781;54.094;13.428;2023-04-24T03:40:08;11.25;11.25;9.00
46044;PMS7003;31781;54.094;13.428;2023-04-24T03:42:10;13.25;12.75;9.50
46044;PMS7003;31781;54.094;13.428;2023-04-24T03:44:12;11.00;11.00;7.25
46044;PMS7003;31781;54.094;13.428;2023-04-24T03:46:14;11.00;10.25;8.25
46044;PMS7003;31781;54.094;13.428;2023-04-24T03:48:16;10.75;10.75;7.50
46044;PMS7003;31781;54.094;13.428;2023-04-24T03:50:19;13.25;12.50;10.50
46044;PMS7003;31781;54.094;13.428;2023-04-24T03:52:21;10.75;10.50;8.00
46044;PMS7003;31781;54.094;13.428;2023-04-24T03:54:22;17.00;15.50;11.25
46044;PMS7003;31781;54.094;13.428;2023-04-24T03:56:26;10.75;10.25;8.50
46044;PMS7003;31781;54.094;13.428;2023-04-24T03:58:28;11.75;11.75;9.00
46044;PMS7003;31781;54.094;13.428;2023-04-24T04:00:30;11.25;11.25;8.75
46044;PMS7003;31781;54.094;13.428;2023-04-24T04:02:31;12.25;10.75;9.25
46044;PMS7003;31781;54.094;13.428;2023-04-24T04:04:33;13.50;11.25;9.50
46044;PMS7003;31781;54.094;13.428;2023-04-24T04:06:37;11.50;11.50;9.00
46044;PMS7003;31781;54.094;13.428;2023-04-24T04:08:39;8.50;8.50;5.75
46044;PMS7003;31781;54.094;13.428;2023-04-24T04:10:40;10.00;10.00;6.00
46044;PMS7003;31781;54.094;13.428;2023-04-24T04:12:42;12.00;10.25;6.25
46044;PMS7003;31781;54.094;13.428;2023-04-24T04:14:43;11.00;11.00;8.75
46044;PMS7003;31781;54.094;13.428;2023-04-24T04:16:45;12.25;11.50;9.00
46044;PMS7003;31781;54.094;13.428;2023-04-24T04:18:47;10.50;9.00;7.00
46044;PMS7003;31781;54.094;13.428;2023-04-24T04:20:48;11.00;11.00;9.00
46044;PMS7003;31781;54.094;13.428;2023-04-24T04:22:52;11.00;9.50;6.50
46044;PMS7003;31781;54.094;13.428;2023-04-24T04:24:53;10.75;9.25;5.50
46044;PMS7003;31781;54.094;13.428;2023-04-24T04:26:55;10.00;10.00;6.50
46044;PMS7003;31781;54.094;13.428;2023-04-24T04:28:56;8.25;8.25;6.00
46044;PMS7003;31781;54.094;13.428;2023-04-24T04:30:58;12.50;12.50;9.75
46044;PMS7003;31781;54.094;13.428;2023-04-24T04:32:59;12.25;10.75;9.00
46044;PMS7003;31781;54.094;13.428;2023-04-24T04:35:01;13.00;11.25;9.00
46044;PMS7003;31781;54.094;13.428;2023-04-24T04:37:03;10.00;10.00;8.00
46044;PMS7003;31781;54.094;13.428;2023-04-24T04:39:06;12.00;12.00;10.25
46044;PMS7003;31781;54.094;13.428;2023-04-24T04:41:08;7.50;7.50;5.50
46044;PMS7003;31781;54.094;13.428;2023-04-24T04:43:10;10.75;10.75;7.75
46044;PMS7003;31781;54.094;13.428;2023-04-24T04:45:11;11.50;11.50;7.50
46044;PMS7003;31781;54.094;13.428;2023-04-24T04:47:13;9.00;9.00;6.00
46044;PMS7003;31781;54.094;13.428;2023-04-24T04:49:15;10.00;8.75;6.00
46044;PMS7003;31781;54.094;13.428;2023-04-24T04:51:16;9.50;9.00;6.00
46044;PMS7003;31781;54.094;13.428;2023-04-24T04:53:18;12.25;10.75;7.50
46044;PMS7003;31781;54.094;13.428;2023-04-24T04:55:21;11.00;8.50;7.00
46044;PMS7003;31781;54.094;13.428;2023-04-24T04:57:22;12.75;10.50;7.25
46044;PMS7003;31781;54.094;13.428;2023-04-24T04:59:24;12.25;11.00;8.25
46044;PMS7003;31781;54.094;13.428;2023-04-24T05:01:26;13.50;11.50;5.00
46044;PMS7003;31781;54.094;13.428;2023-04-24T05:03:27;12.25;12.25;7.00
46044;PMS7003;31781;54.094;13.428;2023-04-24T05:05:29;10.00;10.00;8.25
46044;PMS7003;31781;54.094;13.428;2023-04-24T05:07:31;15.25;12.00;9.50
46044;PMS7003;31781;54.094;13.428;2023-04-24T05:09:32;14.00;14.00;11.00
46044;PMS7003;31781;54.094;13.428;2023-04-24T05:11:36;13.00;13.00;10.25
46044;PMS7003;31781;54.094;13.428;2023-04-24T05:13:37;13.25;13.25;10.00
46044;PMS7003;31781;54.094;13.428;2023-04-24T05:15:41;14.00;12.75;10.50
46044;PMS7003;31781;54.094;13.428;2023-04-24T05:17:43;15.25;15.00;12.25
46044;PMS7003;31781;54.094;13.428;2023-04-24T05:19:44;10.00;10.00;7.00
46044;PMS7003;31781;54.094;13.428;2023-04-24T05:21:46;12.75;12.75;10.50
46044;PMS7003;31781;54.094;13.428;2023-04-24T05:23:48;12.25;12.00;8.00
46044;PMS7003;31781;54.094;13.428;2023-04-24T05:25:49;10.00;10.00;7.00
46044;PMS7003;31781;54.094;13.428;2023-04-24T05:27:53;11.00;11.00;7.75
46044;PMS7003;31781;54.094;13.428;2023-04-24T05:29:54;12.75;11.25;7.25
46044;PMS7003;31781;54.094;13.428;2023-04-24T05:31:56;12.00;11.00;8.75
46044;PMS7003;31781;54.094;13.428;2023-04-24T05:33:58;9.25;9.25;8.00
46044;PMS7003;31781;54.094;13.428;2023-04-24T05:35:59;12.00;10.75;7.00
46044;PMS7003;31781;54.094;13.428;2023-04-24T05:38:01;9.75;9.50;7.00
46044;PMS7003;31781;54.094;13.428;2023-04-24T05:40:02;9.50;9.25;6.75
46044;PMS7003;31781;54.094;13.428;2023-04-24T05:42:05;12.25;10.50;7.00
46044;PMS7003;31781;54.094;13.428;2023-04-24T05:44:07;9.50;9.50;7.00
46044;PMS7003;31781;54.094;13.428;2023-04-24T05:46:09;7.75;7.75;5.75
46044;PMS7003;31781;54.094;13.428;2023-04-24T05:48:12;9.25;8.00;6.00
46044;PMS7003;31781;54.094;13.428;2023-04-24T05:50:14;10.25;10.25;7.00
46044;PMS7003;31781;54.094;13.428;2023-04-24T05:52:15;11.00;8.00;6.00
46044;PMS7003;31781;54.094;13.428;2023-04-24T05:54:17;11.50;9.50;7.00
46044;PMS7003;31781;54.094;13.428;2023-04-24T05:56:19;12.00;12.00;8.00
46044;PMS7003;31781;54.094;13.428;2023-04-24T05:58:20;9.25;9.25;7.75
46044;PMS7003;31781;54.094;13.428;2023-04-24T06:00:23;11.75;10.75;6.25
46044;PMS7003;31781;54.094;13.428;2023-04-24T06:02:26;10.25;10.00;7.25
46044;PMS7003;31781;54.094;13.428;2023-04-24T06:04:28;7.50;7.50;6.00
46044;PMS7003;31781;54.094;13.428;2023-04-24T06:06:30;10.50;10.50;6.75
46044;PMS7003;31781;54.094;13.428;2023-04-24T06:08:31;8.00;8.00;6.00
46044;PMS7003;31781;54.094;13.428;2023-04-24T06:10:33;10.00;10.00;8.00
46044;PMS7003;31781;54.094;13.428;2023-04-24T06:12:35;10.25;10.25;8.00
46044;PMS7003;31781;54.094;13.428;2023-04-24T06:14:37;12.25;9.75;7.50
46044;PMS7003;31781;54.094;13.428;2023-04-24T06:16:41;8.00;8.00;7.00
46044;PMS7003;31781;54.094;13.428;2023-04-24T06:18:43;10.00;10.00;6.75
46044;PMS7003;31781;54.094;13.428;2023-04-24T06:20:45;9.25;9.25;7.00
46044;PMS7003;31781;54.094;13.428;2023-04-24T06:22:47;8.50;8.50;6.25
46044;PMS7003;31781;54.094;13.428;2023-04-24T06:24:49;9.25;9.25;6.00
46044;PMS7003;31781;54.094;13.428;2023-04-24T06:26:50;8.75;8.75;6.75
46044;PMS7003;31781;54.094;13.428;2023-04-24T06:28:52;11.25;11.25;7.75
46044;PMS7003;31781;54.094;13.428;2023-04-24T06:30:54;8.50;8.50;6.50
46044;PMS7003;31781;54.094;13.428;2023-04-24T06:32:57;8.00;8.00;6.00
46044;PMS7003;31781;54.094;13.428;2023-04-24T06:35:09;8.00;8.00;6.00
46044;PMS7003;31781;54.094;13.428;2023-04-24T06:37:11;9.00;8.50;7.00
46044;PMS7003;31781;54.094;13.428;2023-04-24T06:39:12;9.00;9.00;7.00
46044;PMS7003;31781;54.094;13.428;2023-04-24T06:41:14;9.75;9.00;6.00
46044;PMS7003;31781;54.094;13.428;2023-04-24T06:43:16;9.25;9.25;6.75
46044;PMS7003;31781;54.094;13.428;2023-04-24T06:45:17;6.00;6.00;5.00
46044;PMS7003;31781;54.094;13.428;2023-04-24T06:47:19;10.25;7.25;6.00
46044;PMS7003;31781;54.094;13.428;2023-04-24T06:49:22;10.75;10.00;7.00
46044;PMS7003;31781;54.094;13.428;2023-04-24T06:51:24;10.25;10.25;8.00
46044;PMS7003;31781;54.094;13.428;2023-04-24T06:53:26;9.75;9.75;7.00
46044;PMS7003;31781;54.094;13.428;2023-04-24T06:55:28;8.25;8.25;7.25
46044;PMS7003;31781;54.094;13.428;2023-04-24T06:57:30;6.75;6.75;6.00
46044;PMS7003;31781;54.094;13.428;2023-04-24T06:59:32;11.25;11.25;7.75
46044;PMS7003;31781;54.094;13.428;2023-04-24T07:01:34;9.00;9.00;7.00
46044;PMS7003;31781;54.094;13.428;2023-04-24T07:03:35;10.75;10.75;7.50
46044;PMS7003;31781;54.094;13.428;2023-04-24T07:05:39;12.00;12.00;8.00
46044;PMS7003;31781;54.094;13.428;2023-04-24T07:07:41;9.75;9.75;7.00
46044;PMS7003;31781;54.094;13.428;2023-04-24T07:09:42;15.25;15.25;11.50
46044;PMS7003;31781;54.094;13.428;2023-04-24T07:11:44;16.75;16.00;14.25
46044;PMS7003;31781;54.094;13.428;2023-04-24T07:13:46;17.75;17.75;15.00
46044;PMS7003;31781;54.094;13.428;2023-04-24T07:15:47;16.50;13.75;11.25
46044;PMS7003;31781;54.094;13.428;2023-04-24T07:17:50;15.75;12.25;8.50
46044;PMS7003;31781;54.094;13.428;2023-04-24T07:19:51;14.00;11.75;7.25
46044;PMS7003;31781;54.094;13.428;2023-04-24T07:21:54;12.00;11.00;8.00
46044;PMS7003;31781;54.094;13.428;2023-04-24T07:23:56;10.75;10.75;8.50
46044;PMS7003;31781;54.094;13.428;2023-04-24T07:25:58;11.00;11.00;8.25
46044;PMS7003;31781;54.094;13.428;2023-04-24T07:27:59;12.50;10.25;7.50
46044;PMS7003;31781;54.094;13.428;2023-04-24T07:30:01;7.00;6.75;5.50
46044;PMS7003;31781;54.094;13.428;2023-04-24T07:32:03;14.50;14.50;9.25
46044;PMS7003;31781;54.094;13.428;2023-04-24T07:34:05;13.25;9.00;6.50
46044;PMS7003;31781;54.094;13.428;2023-04-24T07:36:06;10.75;10.50;7.25
46044;PMS7003;31781;54.094;13.428;2023-04-24T07:38:09;15.25;11.75;8.00
46044;PMS7003;31781;54.094;13.428;2023-04-24T07:40:11;12.00;12.00;7.75
46044;PMS7003;31781;54.094;13.428;2023-04-24T07:42:13;8.00;8.00;7.00
46044;PMS7003;31781;54.094;13.428;2023-04-24T07:44:14;10.75;10.75;7.50
46044;PMS7003;31781;54.094;13.428;2023-04-24T07:46:16;10.75;8.50;7.00
46044;PMS7003;31781;54.094;13.428;2023-04-24T07:48:18;10.25;10.25;8.00
46044;PMS7003;31781;54.094;13.428;2023-04-24T07:50:20;9.75;9.75;7.00
46044;PMS7003;31781;54.094;13.428;2023-04-24T07:52:21;9.00;9.00;7.75
46044;PMS7003;31781;54.094;13.428;2023-04-24T07:54:24;10.00;7.25;6.25
46044;PMS7003;31781;54.094;13.428;2023-04-24T07:56:26;7.75;7.75;6.00
46044;PMS7003;31781;54.094;13.428;2023-04-24T07:58:28;7.25;7.25;6.00
46044;PMS7003;31781;54.094;13.428;2023-04-24T08:00:30;7.00;7.00;6.00
46044;PMS7003;31781;54.094;13.428;2023-04-24T08:02:32;9.75;9.00;7.00
46044;PMS7003;31781;54.094;13.428;2023-04-24T08:04:33;8.00;8.00;6.25
46044;PMS7003;31781;54.094;13.428;2023-04-24T08:06:35;7.00;7.00;6.00
46044;PMS7003;31781;54.094;13.428;2023-04-24T08:08:37;6.50;6.00;4.75
46044;PMS7003;31781;54.094;13.428;2023-04-24T08:10:40;7.00;7.00;6.00
46044;PMS7003;31781;54.094;13.428;2023-04-24T08:12:41;5.50;5.50;5.00
46044;PMS7003;31781;54.094;13.428;2023-04-24T08:14:43;6.25;6.25;5.50
46044;PMS7003;31781;54.094;13.428;2023-04-24T08:16:45;7.50;7.50;5.75
46044;PMS7003;31781;54.094;13.428;2023-04-24T08:18:46;7.00;7.00;5.00
46044;PMS7003;31781;54.094;13.428;2023-04-24T08:20:48;7.00;7.00;5.50
46044;PMS7003;31781;54.094;13.428;2023-04-24T08:22:50;4.40;4.40;3.20
46044;PMS7003;31781;54.094;13.428;2023-04-24T08:24:51;5.00;5.00;4.50
46044;PMS7003;31781;54.094;13.428;2023-04-24T08:26:54;6.20;6.00;5.00
46044;PMS7003;31781;54.094;13.428;2023-04-24T08:28:56;6.80;4.20;3.40
46044;PMS7003;31781;54.094;13.428;2023-04-24T08:30:58;5.60;5.60;4.80
46044;PMS7003;31781;54.094;13.428;2023-04-24T08:33:00;5.60;4.00;4.00
46044;PMS7003;31781;54.094;13.428;2023-04-24T08:35:01;5.00;5.00;4.00
46044;PMS7003;31781;54.094;13.428;2023-04-24T08:37:03;6.20;5.00;3.60
46044;PMS7003;31781;54.094;13.428;2023-04-24T08:39:05;4.40;4.40;3.80
46044;PMS7003;31781;54.094;13.428;2023-04-24T08:41:07;3.60;3.60;3.00
46044;PMS7003;31781;54.094;13.428;2023-04-24T08:43:11;7.40;5.40;4.00
46044;PMS7003;31781;54.094;13.428;2023-04-24T08:45:13;4.60;3.60;3.00
46044;PMS7003;31781;54.094;13.428;2023-04-24T08:47:15;6.20;5.00;4.40
46044;PMS7003;31781;54.094;13.428;2023-04-24T08:49:17;3.20;3.20;3.00
46044;PMS7003;31781;54.094;13.428;2023-04-24T08:51:20;4.00;4.00;3.60
46044;PMS7003;31781;54.094;13.428;2023-04-24T08:53:22;2.60;2.60;2.00
46044;PMS7003;31781;54.094;13.428;2023-04-24T08:55:25;3.40;3.40;3.00
46044;PMS7003;31781;54.094;13.428;2023-04-24T08:57:27;6.00;6.00;4.20
46044;PMS7003;31781;54.094;13.428;2023-04-24T08:59:31;4.60;4.60;4.00
46044;PMS7003;31781;54.094;13.428;2023-04-24T09:01:33;3.20;3.20;3.00
46044;PMS7003;31781;54.094;13.428;2023-04-24T09:03:38;1.40;1.40;1.00
46044;PMS7003;31781;54.094;13.428;2023-04-24T09:05:41;5.20;5.20;4.60
46044;PMS7003;31781;54.094;13.428;2023-04-24T09:07:45;1.80;1.80;1.80
46044;PMS7003;31781;54.094;13.428;2023-04-24T09:09:50;4.00;3.60;2.80
46044;PMS7003;31781;54.094;13.428;2023-04-24T09:11:53;4.80;4.80;3.60
46044;PMS7003;31781;54.094;13.428;2023-04-24T09:13:55;4.40;4.40;3.40
46044;PMS7003;31781;54.094;13.428;2023-04-24T09:15:59;3.20;3.20;2.60
46044;PMS7003;31781;54.094;13.428;2023-04-24T09:18:00;3.20;3.20;2.60
46044;PMS7003;31781;54.094;13.428;2023-04-24T09:20:02;4.60;4.60;3.60
46044;PMS7003;31781;54.094;13.428;2023-04-24T09:22:05;5.20;5.20;4.40
46044;PMS7003;31781;54.094;13.428;2023-04-24T09:24:08;2.60;2.20;1.40
46044;PMS7003;31781;54.094;13.428;2023-04-24T09:26:16;4.60;4.60;4.00
46044;PMS7003;31781;54.094;13.428;2023-04-24T09:28:18;3.00;3.00;2.80
46044;PMS7003;31781;54.094;13.428;2023-04-24T09:30:21;3.80;3.80;3.40
46044;PMS7003;31781;54.094;13.428;2023-04-24T09:32:24;4.00;2.80;2.00
46044;PMS7003;31781;54.094;13.428;2023-04-24T09:34:26;3.00;3.00;2.80
46044;PMS7003;31781;54.094;13.428;2023-04-24T09:36:29;4.20;3.20;2.20
46044;PMS7003;31781;54.094;13.428;2023-04-24T09:38:32;3.20;2.80;2.80
46044;PMS7003;31781;54.094;13.428;2023-04-24T09:40:35;4.00;4.00;3.60
46044;PMS7003;31781;54.094;13.428;2023-04-24T09:42:36;3.60;3.60;3.00
46044;PMS7003;31781;54.094;13.428;2023-04-24T09:44:38;4.00;4.00;3.00
46044;PMS7003;31781;54.094;13.428;2023-04-24T09:46:41;3.20;3.20;2.60
46044;PMS7003;31781;54.094;13.428;2023-04-24T09:48:44;2.60;2.60;2.20
46044;PMS7003;31781;54.094;13.428;2023-04-24T09:50:46;3.00;3.00;2.40
46044;PMS7003;31781;54.094;13.428;2023-04-24T09:52:55;1.80;1.80;1.00
46044;PMS7003;31781;54.094;13.428;2023-04-24T09:54:58;2.20;2.20;2.20
46044;PMS7003;31781;54.094;13.428;2023-04-24T09:56:59;1.00;0.80;0.80
46044;PMS7003;31781;54.094;13.428;2023-04-24T09:59:04;1.80;1.00;1.00
46044;PMS7003;31781;54.094;13.428;2023-04-24T10:01:06;1.80;1.80;1.00
46044;PMS7003;31781;54.094;13.428;2023-04-24T10:03:07;1.80;1.80;1.60
46044;PMS7003;31781;54.094;13.428;2023-04-24T10:05:11;1.00;1.00;1.00
46044;PMS7003;31781;54.094;13.428;2023-04-24T10:07:15;4.40;1.60;1.00
46044;PMS7003;31781;54.094;13.428;2023-04-24T10:09:27;1.00;1.00;0.60
46044;PMS7003;31781;54.094;13.428;2023-04-24T10:11:50;1.00;1.00;1.00
46044;PMS7003;31781;54.094;13.428;2023-04-24T10:14:16;5.40;5.40;4.80
46044;PMS7003;31781;54.094;13.428;2023-04-24T10:16:27;1.60;1.60;1.60
46044;PMS7003;31781;54.094;13.428;2023-04-24T10:19:09;1.00;1.00;1.00
46044;PMS7003;31781;54.094;13.428;2023-04-24T10:21:39;1.00;1.00;1.00
46044;PMS7003;31781;54.094;13.428;2023-04-24T10:23:42;1.60;1.60;1.20
46044;PMS7003;31781;54.094;13.428;2023-04-24T10:25:44;0.80;0.80;0.20
46044;PMS7003;31781;54.094;13.428;2023-04-24T10:27:46;1.00;1.00;1.00
46044;PMS7003;31781;54.094;13.428;2023-04-24T10:29:52;1.00;1.00;1.00
46044;PMS7003;31781;54.094;13.428;2023-04-24T10:31:54;0.40;0.40;0.40
46044;PMS7003;31781;54.094;13.428;2023-04-24T10:33:56;1.00;1.00;1.00
46044;PMS7003;31781;54.094;13.428;2023-04-24T10:36:01;1.00;1.00;1.00
46044;PMS7003;31781;54.094;13.428;2023-04-24T10:38:05;0.80;0.80;0.40
46044;PMS7003;31781;54.094;13.428;2023-04-24T10:40:10;2.00;2.00;1.50
46044;PMS7003;31781;54.094;13.428;2023-04-24T10:42:14;1.00;1.00;1.00
46044;PMS7003;31781;54.094;13.428;2023-04-24T10:44:16;1.00;1.00;1.00
46044;PMS7003;31781;54.094;13.428;2023-04-24T10:46:19;1.00;1.00;1.00
46044;PMS7003;31781;54.094;13.428;2023-04-24T10:48:26;1.75;1.75;1.25
46044;PMS7003;31781;54.094;13.428;2023-04-24T10:50:28;1.00;1.00;1.00
46044;PMS7003;31781;54.094;13.428;2023-04-24T10:52:45;1.00;1.00;0.25
46044;PMS7003;31781;54.094;13.428;2023-04-24T10:54:49;1.25;1.25;1.00
46044;PMS7003;31781;54.094;13.428;2023-04-24T10:56:50;1.00;1.00;1.00
46044;PMS7003;31781;54.094;13.428;2023-04-24T10:58:53;1.00;1.00;1.00
46044;PMS7003;31781;54.094;13.428;2023-04-24T11:00:55;1.00;0.75;0.00
46044;PMS7003;31781;54.094;13.428;2023-04-24T11:02:57;1.00;1.00;1.00
46044;PMS7003;31781;54.094;13.428;2023-04-24T11:05:01;2.00;2.00;2.00
46044;PMS7003;31781;54.094;13.428;2023-04-24T11:07:04;1.75;1.75;1.00
46044;PMS7003;31781;54.094;13.428;2023-04-24T11:09:07;1.00;1.00;1.00
46044;PMS7003;31781;54.094;13.428;2023-04-24T11:11:11;1.75;1.75;1.00
46044;PMS7003;31781;54.094;13.428;2023-04-24T11:13:14;1.75;1.75;1.50
46044;PMS7003;31781;54.094;13.428;2023-04-24T11:15:17;2.75;2.00;1.00
46044;PMS7003;31781;54.094;13.428;2023-04-24T11:17:27;1.00;1.00;1.00
46044;PMS7003;31781;54.094;13.428;2023-04-24T11:19:30;0.75;0.75;0.50
46044;PMS7003;31781;54.094;13.428;2023-04-24T11:21:32;1.00;1.00;1.00
46044;PMS7003;31781;54.094;13.428;2023-04-24T11:23:40;0.25;0.25;0.25
46044;PMS7003;31781;54.094;13.428;2023-04-24T11:25:42;0.25;0.25;0.00
46044;PMS7003;31781;54.094;13.428;2023-04-24T11:27:45;0.00;0.00;0.00
46044;PMS7003;31781;54.094;13.428;2023-04-24T11:29:47;0.00;0.00;0.00
46044;PMS7003;31781;54.094;13.428;2023-04-24T11:31:49;0.00;0.00;0.00
46044;PMS7003;31781;54.094;13.428;2023-04-24T11:33:51;0.00;0.00;0.00
46044;PMS7003;31781;54.094;13.428;2023-04-24T11:35:54;0.00;0.00;0.00
46044;PMS7003;31781;54.094;13.428;2023-04-24T11:37:55;0.25;0.25;0.00